Pine Valley, California
Current Conditions -  °F | °C
As of 6:53 AM on Friday 28 Nov 2014 (Local Time) from KRNM Reporting Station
Clear Clear  
Wind Chill: 40°   Ceiling: Unl
Heat Index: 40°   Visibility: 10mi
Dew Point: 29°   Wind: 0mph
Humidity: 65%   Direction: NA
Pressure: 30.02"   Gusts: NA
Location:  32.86°N, 116.5°W
Report Text: KRNM 281453Z AUTO 00000KT 10SM CLR 04/M02 A3002 RMK AO2 SLP165 T00441017 53001 $
Loading
Personal Weather Stations






























Interactive Weather Map New forecast layout! Learn more

10-Day Weather Forecast

Advertisements
Track Severe Weather on mobile